Terminal Aerodrome Forecast
Issued by NWS Bismarck, ND

Home | Current Version | Previous Version | Graphics & Text | Print | Product List | Glossary On
Versions: 1 2 3 4 5 6 7 8 9 10 11 12 13 14 15 16 17 18 19 20 21 22
000
FTUS43 KBIS 241300 AAA
TAFBIS
TAF AMD
KBIS 241355Z 2414/2512 13010KT P6SM VCTS SCT050CB SCT090 OVC150
      TEMPO 2414/2415 VRB25G40KT 5SM TSRA BKN035CB
     FM241600 12013KT P6SM SCT090 BKN250
     FM250200 10007KT P6SM VCTS SCT080CB BKN120=

USA.gov is the U.S. government's official web portal to all federal, state and local government web resources and services.